.
WxDataArchive / Data Records for 2013-11-20
2013-11-19 November 2013 2013-11-21

Data Records for Wednesday, 20 November 2013

Time	Temp	Chill	HIndex	Humid	Dewpt	 Wind 	HiWind	WindDir	Rain 	Barom 
-----	----	-----	------	-----	-----	------	------	-------	-----	----- 
00:00	28.8	28.8	28.8	80	23.4	0	0	---	0.00	30.371 
00:05	28.5	28.5	28.5	80	23.1	0	0	---	0.00	30.371 
00:10	28.4	28.4	28.4	80	23.0	0	0	---	0.00	30.371 
00:15	28.2	28.2	28.2	81	23.1	0	0	---	0.00	30.373 
00:20	28.1	28.1	28.1	81	23.0	0	0	---	0.00	30.373 
00:25	28.1	28.1	28.1	82	23.3	0	0	---	0.00	30.373 
00:30	27.9	27.9	27.9	82	23.1	0	0	---	0.00	30.371 
00:35	27.9	27.9	27.9	82	23.1	0	0	---	0.00	30.371 
00:40	27.9	27.9	27.9	83	23.4	0	1	90	0.00	30.371 
00:45	28.1	28.1	28.1	83	23.6	0	1	90	0.00	30.369 
00:50	28.1	28.1	28.1	83	23.6	0	1	90	0.00	30.369 
00:55	28.1	28.1	28.1	82	23.3	0	1	90	0.00	30.369 
01:00	28.1	28.1	28.1	82	23.3	0	1	90	0.00	30.369 
01:05	28.1	28.1	28.1	82	23.3	0	2	90	0.00	30.369 
01:10	28.1	28.1	28.1	82	23.3	0	1	90	0.00	30.369 
01:15	28.1	28.1	28.1	82	23.3	0	1	90	0.00	30.367 
01:20	27.9	27.9	27.9	82	23.1	0	1	90	0.00	30.367 
01:25	27.9	27.9	27.9	83	23.4	0	0	---	0.00	30.367 
01:30	27.8	27.8	27.8	83	23.3	0	1	90	0.00	30.367 
01:35	27.6	27.6	27.6	83	23.1	0	0	---	0.00	30.367 
01:40	27.6	27.6	27.6	83	23.1	0	0	---	0.00	30.367 
01:45	27.5	27.5	27.5	83	23.0	0	1	90	0.00	30.366 
01:50	27.5	27.5	27.5	84	23.3	0	0	---	0.00	30.366 
01:55	27.5	27.5	27.5	84	23.3	0	1	90	0.00	30.366 
02:00	27.3	27.3	27.3	84	23.1	0	1	90	0.00	30.367 
02:05	27.3	27.3	27.3	84	23.1	0	1	90	0.00	30.367 
02:10	27.3	27.3	27.3	84	23.1	0	1	90	0.00	30.367 
02:15	27.3	27.3	27.3	84	23.1	0	1	90	0.00	30.372 
02:20	27.2	27.2	27.2	84	23.0	0	0	---	0.00	30.372 
02:25	27.0	27.0	27.0	84	22.8	0	0	---	0.00	30.372 
02:30	26.9	26.9	26.9	84	22.7	0	0	---	0.00	30.377 
02:35	26.7	26.7	26.7	84	22.5	0	0	---	0.00	30.377 
02:40	26.6	26.6	26.6	84	22.4	0	0	---	0.00	30.377 
02:45	26.4	26.4	26.4	84	22.2	0	0	---	0.00	30.376 
02:50	26.3	26.3	26.3	84	22.1	0	0	---	0.00	30.376 
02:55	26.0	26.0	26.0	84	21.8	0	0	---	0.00	30.376 
03:00	25.8	25.8	25.8	85	21.9	0	0	---	0.00	30.373 
03:05	25.8	25.8	25.8	85	21.9	0	0	---	0.00	30.373 
03:10	25.8	25.8	25.8	86	22.2	0	1	90	0.00	30.373 
03:15	26.0	26.0	26.0	86	22.4	0	1	90	0.00	30.375 
03:20	26.1	26.1	26.1	87	22.8	0	1	90	0.00	30.375 
03:25	26.3	26.3	26.3	87	23.0	0	1	90	0.00	30.375 
03:30	26.3	26.3	26.3	87	23.0	0	1	90	0.00	30.372 
03:35	26.4	26.4	26.4	87	23.1	0	2	90	0.00	30.372 
03:40	26.6	26.6	26.6	87	23.3	0	2	90	0.00	30.372 
03:45	26.7	26.7	26.7	87	23.4	0	2	90	0.00	30.377 
03:50	26.7	26.7	26.7	87	23.4	0	2	90	0.00	30.377 
03:55	26.7	26.7	26.7	86	23.1	0	1	90	0.00	30.377 
04:00	26.7	26.7	26.7	86	23.1	0	1	90	0.00	30.376 
04:05	26.7	26.7	26.7	86	23.1	0	2	90	0.00	30.376 
04:10	26.7	26.7	26.7	86	23.1	0	2	90	0.00	30.376 
04:15	26.7	26.7	26.7	86	23.1	1	2	90	0.00	30.371 
04:20	26.7	26.7	26.7	86	23.1	0	2	90	0.00	30.371 
04:25	26.7	26.7	26.7	86	23.1	0	1	90	0.00	30.371 
04:30	26.7	26.7	26.7	86	23.1	0	2	90	0.00	30.373 
04:35	26.7	26.7	26.7	86	23.1	0	2	90	0.00	30.373 
04:40	26.6	26.6	26.6	85	22.7	0	2	90	0.00	30.373 
04:45	26.6	26.6	26.6	85	22.7	0	2	90	0.00	30.373 
04:50	26.4	26.4	26.4	85	22.5	0	2	90	0.00	30.373 
04:55	26.4	26.4	26.4	86	22.8	0	2	90	0.00	30.373 
05:00	26.4	26.4	26.4	86	22.8	0	1	90	0.00	30.374 
05:05	26.3	26.3	26.3	85	22.4	0	1	90	0.00	30.374 
05:10	26.3	26.3	26.3	86	22.7	0	1	90	0.00	30.374 
05:15	26.1	26.1	26.1	86	22.5	0	0	---	0.00	30.384 
05:20	26.0	26.0	26.0	86	22.4	0	0	---	0.00	30.384 
05:25	25.8	25.8	25.8	86	22.2	0	0	---	0.00	30.384 
05:30	25.7	25.7	25.7	85	21.8	0	0	---	0.00	30.385 
05:35	25.4	25.4	25.4	85	21.5	0	0	---	0.00	30.385 
05:40	25.3	25.3	25.3	85	21.4	0	0	---	0.00	30.385 
05:45	25.1	25.1	25.1	86	21.5	0	0	---	0.00	30.388 
05:50	25.0	25.0	25.0	86	21.4	0	0	---	0.00	30.388 
05:55	24.8	24.8	24.8	86	21.2	0	0	---	0.00	30.388 
06:00	24.8	24.8	24.8	86	21.2	0	0	---	0.00	30.390 
06:05	24.7	24.7	24.7	86	21.1	0	0	---	0.00	30.390 
06:10	24.5	24.5	24.5	87	21.2	0	0	---	0.00	30.390 
06:15	24.7	24.7	24.7	87	21.4	0	1	90	0.00	30.393 
06:20	25.0	25.0	25.0	88	22.0	0	1	90	0.00	30.393 
06:25	25.3	25.3	25.3	88	22.3	0	1	90	0.00	30.393 
06:30	25.4	25.4	25.4	88	22.4	0	2	90	0.00	30.396 
06:35	25.6	25.6	25.6	88	22.5	0	1	90	0.00	30.396 
06:40	25.6	25.6	25.6	87	22.3	1	2	90	0.00	30.396 
06:45	25.7	25.7	25.7	87	22.4	1	2	90	0.00	30.392 
06:50	25.7	25.7	25.7	87	22.4	0	3	90	0.00	30.392 
06:55	25.8	25.8	25.8	87	22.5	1	3	90	0.00	30.392 
07:00	26.0	26.0	26.0	87	22.7	1	3	90	0.00	30.390 
07:05	26.0	26.0	26.0	87	22.7	1	2	90	0.00	30.390 
07:10	26.0	26.0	26.0	86	22.4	1	3	90	0.00	30.390 
07:15	26.0	26.0	26.0	86	22.4	1	3	90	0.00	30.391 
07:20	26.1	26.1	26.1	86	22.5	2	4	90	0.00	30.391 
07:25	26.1	26.1	26.1	86	22.5	1	6	90	0.00	30.391 
07:30	26.3	26.3	26.3	86	22.7	2	6	90	0.00	30.388 
07:35	26.3	26.3	26.3	86	22.7	2	5	90	0.00	30.388 
07:40	26.4	26.4	26.4	86	22.8	1	4	90	0.00	30.388 
07:45	26.4	26.4	26.4	86	22.8	1	4	90	0.00	30.385 
07:50	26.4	26.4	26.4	85	22.5	1	4	68	0.00	30.385 
07:55	26.4	26.4	26.4	85	22.5	0	3	90	0.00	30.385 
08:00	26.6	26.6	26.6	85	22.7	0	2	90	0.00	30.395 
08:05	26.6	26.6	26.6	85	22.7	0	2	90	0.00	30.395 
08:10	26.7	26.7	26.7	85	22.8	0	2	90	0.00	30.395 
08:15	27.2	27.2	27.2	85	23.3	0	2	90	0.00	30.397 
08:20	27.8	27.8	27.8	85	23.9	0	1	90	0.00	30.397 
08:25	28.1	28.1	28.1	84	23.9	0	2	90	0.00	30.397 
08:30	28.2	28.2	28.2	83	23.7	1	3	90	0.00	30.396 
08:35	28.4	28.4	28.4	83	23.9	1	3	90	0.00	30.396 
08:40	28.7	28.7	28.7	83	24.2	1	4	90	0.00	30.396 
08:45	29.0	29.0	29.0	82	24.2	2	4	90	0.00	30.394 
08:50	29.1	29.1	29.1	81	24.0	2	6	90	0.00	30.394 
08:55	29.4	29.4	29.4	81	24.3	2	5	112	0.00	30.394 
09:00	29.7	29.7	29.7	80	24.3	2	6	112	0.00	30.389 
09:05	29.8	29.8	29.8	80	24.4	2	5	112	0.00	30.389 
09:10	30.1	30.1	30.1	80	24.7	2	7	90	0.00	30.389 
09:15	30.6	30.6	30.6	79	24.9	2	5	90	0.00	30.392 
09:20	30.9	30.9	30.9	78	24.9	2	5	90	0.00	30.392 
09:25	31.2	31.2	31.2	77	24.8	3	7	112	0.00	30.392 
09:30	31.3	31.3	31.3	77	24.9	3	7	90	0.00	30.390 
09:35	31.5	31.5	31.5	77	25.1	2	5	112	0.00	30.390 
09:40	31.5	31.5	31.5	77	25.1	3	9	90	0.00	30.390 
09:45	31.5	31.5	31.5	77	25.1	3	4	90	0.00	30.382 
09:50	31.6	31.6	31.6	77	25.2	3	7	90	0.00	30.382 
09:55	31.8	31.8	31.8	78	25.7	3	7	112	0.00	30.382 
10:00	31.9	31.9	31.9	78	25.8	2	5	112	0.00	30.376 
10:05	32.2	32.2	32.2	77	25.8	3	6	90	0.00	30.376 
10:10	32.5	32.5	32.5	76	25.8	3	5	112	0.00	30.376 
10:15	32.8	32.8	32.8	76	26.1	3	9	90	0.00	30.371 
10:20	33.1	33.1	33.1	76	26.4	2	7	90	0.00	30.371 
10:25	33.4	29.7	33.4	75	26.3	4	7	90	0.00	30.371 
10:30	33.7	33.7	33.7	75	26.6	3	7	112	0.00	30.365 
10:35	34.0	34.0	34.0	75	26.9	2	10	112	0.00	30.365 
10:40	34.3	34.3	34.3	73	26.6	3	9	112	0.00	30.365 
10:45	34.7	34.7	34.7	73	26.9	2	7	112	0.00	30.356 
10:50	34.9	34.9	34.9	72	26.8	3	7	90	0.00	30.356 
10:55	35.0	35.0	35.0	71	26.6	3	7	112	0.00	30.356 
11:00	35.0	35.0	35.0	72	26.9	3	10	90	0.00	30.353 
11:05	35.3	35.3	35.3	73	27.5	3	6	112	0.00	30.353 
11:10	35.6	35.6	35.6	71	27.1	3	9	90	0.00	30.353 
11:15	35.9	32.6	35.9	69	26.7	4	11	112	0.00	30.342 
11:20	36.2	32.9	36.2	69	27.0	4	9	112	0.00	30.342 
11:25	36.5	36.5	36.5	67	26.6	3	7	112	0.00	30.342 
11:30	36.5	36.5	36.5	68	27.0	3	9	112	0.00	30.329 
11:35	36.8	36.8	36.8	68	27.2	3	6	90	0.00	30.329 
11:40	37.0	33.9	37.0	67	27.1	4	12	112	0.00	30.329 
11:45	36.9	33.7	36.9	66	26.6	4	11	90	0.00	30.330 
11:50	36.9	36.9	36.9	66	26.6	3	10	112	0.00	30.330 
11:55	36.9	36.9	36.9	66	26.6	3	9	112	0.00	30.330 
12:00	37.2	37.2	37.2	67	27.3	2	6	112	0.00	30.319 
12:05	37.5	37.5	37.5	67	27.6	2	5	112	0.00	30.319 
12:10	37.6	37.6	37.6	65	26.9	3	6	112	0.00	30.319 
12:15	37.6	37.6	37.6	65	26.9	3	9	90	0.00	30.312 
12:20	37.5	37.5	37.5	65	26.8	3	9	90	0.00	30.312 
12:25	37.5	37.5	37.5	66	27.2	3	8	90	0.00	30.312 
12:30	37.8	37.8	37.8	65	27.1	2	10	112	0.00	30.305 
12:35	37.9	37.9	37.9	65	27.2	2	7	90	0.00	30.305 
12:40	38.2	38.2	38.2	65	27.5	3	7	90	0.00	30.305 
12:45	38.2	38.2	38.2	66	27.9	2	7	90	0.00	30.305 
12:50	38.5	38.5	38.5	67	28.5	2	5	90	0.00	30.305 
12:55	38.8	38.8	38.8	65	28.1	3	11	90	0.00	30.305 
13:00	39.1	39.1	39.1	65	28.3	3	9	112	0.00	30.292 
13:05	39.2	39.2	39.2	64	28.1	3	6	112	0.00	30.292 
13:10	39.6	39.6	39.6	64	28.4	3	8	90	0.00	30.292 
13:15	39.9	39.9	39.9	63	28.3	3	7	90	0.00	30.289 
13:20	39.9	39.9	39.9	62	28.0	3	9	112	0.00	30.289 
13:25	39.9	37.2	39.9	61	27.6	4	8	112	0.00	30.289 
13:30	40.1	40.1	40.1	61	27.7	3	7	90	0.00	30.280 
13:35	40.3	40.3	40.3	62	28.3	2	5	90	0.00	30.280 
13:40	40.8	40.8	40.8	61	28.4	3	6	90	0.00	30.280 
13:45	41.2	41.2	41.2	60	28.4	3	9	112	0.00	30.265 
13:50	41.3	41.3	41.3	59	28.1	3	6	90	0.00	30.265 
13:55	41.5	39.1	41.5	59	28.3	4	7	112	0.00	30.265 
14:00	41.5	39.1	41.5	59	28.3	4	10	90	0.00	30.261 
14:05	41.5	41.5	41.5	59	28.3	3	6	90	0.00	30.261 
14:10	41.8	41.8	41.8	59	28.5	2	5	90	0.00	30.261 
14:15	41.9	39.5	41.9	58	28.2	4	10	90	0.00	30.256 
14:20	41.9	41.9	41.9	58	28.2	3	8	90	0.00	30.256 
14:25	42.1	42.1	42.1	58	28.4	3	11	112	0.00	30.256 
14:30	42.1	42.1	42.1	57	28.0	3	9	112	0.00	30.250 
14:35	42.1	42.1	42.1	58	28.4	2	5	90	0.00	30.250 
14:40	42.1	42.1	42.1	58	28.4	2	6	112	0.00	30.250 
14:45	41.8	41.8	41.8	58	28.1	3	9	90	0.00	30.241 
14:50	41.9	39.5	41.9	58	28.2	4	10	90	0.00	30.241 
14:55	42.3	42.3	42.3	58	28.6	2	5	68	0.00	30.241 
15:00	42.5	42.5	42.5	58	28.8	2	5	112	0.00	30.238 
15:05	42.5	42.5	42.5	58	28.8	3	6	112	0.00	30.238 
15:10	42.5	42.5	42.5	58	28.8	2	5	90	0.00	30.238 
15:15	42.8	42.8	42.8	58	29.1	3	6	90	0.00	30.229 
15:20	43.1	43.1	43.1	57	28.9	3	7	90	0.00	30.229 
15:25	43.2	41.0	43.2	57	29.0	4	9	90	0.00	30.229 
15:30	43.3	43.3	43.3	58	29.5	2	9	90	0.00	30.222 
15:35	43.3	43.3	43.3	58	29.5	3	9	90	0.00	30.222 
15:40	43.5	43.5	43.5	58	29.7	3	7	90	0.00	30.222 
15:45	43.5	43.5	43.5	58	29.7	3	5	90	0.00	30.229 
15:50	43.6	43.6	43.6	58	29.8	3	8	90	0.00	30.229 
15:55	43.8	43.8	43.8	58	30.0	2	6	112	0.00	30.229 
16:00	43.9	43.9	43.9	58	30.1	2	5	90	0.00	30.227 
16:05	43.9	43.9	43.9	58	30.1	3	7	90	0.00	30.227 
16:10	43.9	43.9	43.9	58	30.1	2	6	90	0.00	30.227 
16:15	43.8	43.8	43.8	58	30.0	1	5	90	0.00	30.227 
16:20	43.6	43.6	43.6	59	30.2	1	2	90	0.00	30.227 
16:25	43.6	43.6	43.6	59	30.2	1	3	90	0.00	30.227 
16:30	43.5	43.5	43.5	59	30.1	1	4	90	0.00	30.224 
16:35	43.3	43.3	43.3	60	30.4	1	3	90	0.00	30.224 
16:40	43.1	43.1	43.1	60	30.2	1	4	90	0.00	30.224 
16:45	42.8	42.8	42.8	61	30.3	0	2	90	0.00	30.223 
16:50	42.6	42.6	42.6	61	30.1	0	2	90	0.00	30.223 
16:55	42.3	42.3	42.3	62	30.2	0	2	90	0.00	30.223 
17:00	42.1	42.1	42.1	62	30.0	0	3	90	0.00	30.223 
17:05	41.8	41.8	41.8	63	30.1	0	1	90	0.00	30.223 
17:10	41.6	41.6	41.6	64	30.3	0	2	90	0.00	30.223 
17:15	41.2	41.2	41.2	64	30.0	0	1	90	0.00	30.227 
17:20	40.9	40.9	40.9	65	30.1	0	0	---	0.00	30.227 
17:25	40.6	40.6	40.6	65	29.8	0	1	90	0.00	30.227 
17:30	40.2	40.2	40.2	66	29.8	0	0	---	0.00	30.233 
17:35	39.9	39.9	39.9	67	29.8	0	0	---	0.00	30.233 
17:40	39.6	39.6	39.6	68	29.9	0	1	90	0.00	30.233 
17:45	39.5	39.5	39.5	68	29.8	0	1	90	0.00	30.238 
17:50	39.2	39.2	39.2	69	29.9	0	0	---	0.00	30.238 
17:55	39.1	39.1	39.1	69	29.8	0	0	---	0.00	30.238 
18:00	38.6	38.6	38.6	69	29.3	0	0	---	0.00	30.242 
18:05	38.3	38.3	38.3	70	29.4	0	0	---	0.00	30.242 
18:10	38.0	38.0	38.0	70	29.1	0	0	---	0.00	30.242 
18:15	37.8	37.8	37.8	72	29.6	0	0	---	0.00	30.240 
18:20	37.6	37.6	37.6	73	29.7	0	0	---	0.00	30.240 
18:25	37.5	37.5	37.5	73	29.6	0	0	---	0.00	30.240 
18:30	37.5	37.5	37.5	73	29.6	0	0	---	0.00	30.243 
18:35	37.3	37.3	37.3	75	30.1	0	0	---	0.00	30.243 
18:40	37.5	37.5	37.5	75	30.3	0	1	90	0.00	30.243 
18:45	37.6	37.6	37.6	76	30.7	0	0	---	0.00	30.240 
18:50	37.8	37.8	37.8	76	30.9	0	1	90	0.00	30.240 
18:55	38.0	38.0	38.0	75	30.8	0	0	---	0.00	30.240 
19:00	38.0	38.0	38.0	75	30.8	0	0	---	0.00	30.240 
19:05	38.2	38.2	38.2	75	31.0	0	0	---	0.00	30.240 
19:10	38.2	38.2	38.2	75	31.0	0	0	---	0.00	30.240 
19:15	38.2	38.2	38.2	75	31.0	0	0	---	0.00	30.243 
19:20	38.3	38.3	38.3	75	31.1	0	0	---	0.00	30.243 
19:25	38.5	38.5	38.5	75	31.3	0	0	---	0.00	30.243 
19:30	38.6	38.6	38.6	74	31.0	0	0	---	0.00	30.236 
19:35	38.8	38.8	38.8	74	31.2	0	0	---	0.00	30.236 
19:40	38.8	38.8	38.8	74	31.2	0	0	---	0.00	30.236 
19:45	38.8	38.8	38.8	73	30.9	0	0	---	0.00	30.231 
19:50	38.8	38.8	38.8	73	30.9	0	0	---	0.00	30.231 
19:55	38.8	38.8	38.8	73	30.9	0	0	---	0.00	30.231 
20:00	38.6	38.6	38.6	73	30.7	0	1	90	0.00	30.236 
20:05	38.6	38.6	38.6	73	30.7	0	0	---	0.00	30.236 
20:10	38.8	38.8	38.8	74	31.2	0	1	90	0.00	30.236 
20:15	38.8	38.8	38.8	74	31.2	0	2	90	0.00	30.225 
20:20	39.1	39.1	39.1	73	31.2	0	2	90	0.00	30.225 
20:25	39.2	39.2	39.2	73	31.3	0	1	90	0.00	30.225 
20:30	39.3	39.3	39.3	73	31.4	0	1	90	0.00	30.227 
20:35	39.3	39.3	39.3	73	31.4	0	1	90	0.00	30.227 
20:40	39.5	39.5	39.5	73	31.6	0	2	90	0.00	30.227 
20:45	39.6	39.6	39.6	73	31.7	0	1	90	0.00	30.220 
20:50	39.6	39.6	39.6	73	31.7	0	1	90	0.00	30.220 
20:55	39.6	39.6	39.6	73	31.7	0	1	90	0.00	30.220 
21:00	39.8	39.8	39.8	73	31.9	0	1	90	0.00	30.221 
21:05	39.8	39.8	39.8	73	31.9	0	1	90	0.00	30.221 
21:10	39.9	39.9	39.9	73	32.0	0	1	90	0.00	30.221 
21:15	39.9	39.9	39.9	73	32.0	0	3	90	0.00	30.211 
21:20	40.1	40.1	40.1	73	32.2	1	2	90	0.00	30.211 
21:25	40.1	40.1	40.1	72	31.8	0	2	112	0.00	30.211 
21:30	40.2	40.2	40.2	72	31.9	0	2	112	0.00	30.204 
21:35	40.2	40.2	40.2	72	31.9	0	2	112	0.00	30.204 
21:40	40.3	40.3	40.3	72	32.0	0	2	112	0.00	30.204 
21:45	40.3	40.3	40.3	72	32.0	0	2	112	0.00	30.204 
21:50	40.5	40.5	40.5	72	32.2	0	1	112	0.00	30.204 
21:55	40.5	40.5	40.5	72	32.2	0	1	112	0.00	30.204 
22:00	40.5	40.5	40.5	72	32.2	0	1	112	0.00	30.206 
22:05	40.5	40.5	40.5	72	32.2	0	1	112	0.00	30.206 
22:10	40.6	40.6	40.6	71	31.9	0	2	112	0.00	30.206 
22:15	40.8	40.8	40.8	71	32.1	0	3	112	0.00	30.198 
22:20	40.9	40.9	40.9	71	32.2	0	2	112	0.00	30.198 
22:25	40.9	40.9	40.9	70	31.9	0	1	112	0.00	30.198 
22:30	41.1	41.1	41.1	70	32.1	0	2	112	0.00	30.202 
22:35	41.1	41.1	41.1	70	32.1	0	2	112	0.00	30.202 
22:40	41.2	41.2	41.2	70	32.2	0	2	112	0.00	30.202 
22:45	41.3	41.3	41.3	69	31.9	1	4	112	0.00	30.208 
22:50	41.5	41.5	41.5	69	32.1	0	2	112	0.00	30.208 
22:55	41.6	41.6	41.6	68	31.8	0	1	112	0.00	30.208 
23:00	41.8	41.8	41.8	68	32.0	1	3	112	0.00	30.216 
23:05	41.9	41.9	41.9	68	32.1	0	4	112	0.00	30.216 
23:10	42.1	42.1	42.1	67	31.9	0	4	112	0.00	30.216 
23:15	42.2	42.2	42.2	67	32.0	0	2	112	0.00	30.220 
23:20	42.2	42.2	42.2	67	32.0	0	4	112	0.00	30.220 
23:25	42.3	42.3	42.3	67	32.1	1	3	112	0.00	30.220 
23:30	42.5	42.5	42.5	66	32.0	1	3	112	0.00	30.223 
23:35	42.5	42.5	42.5	66	32.0	1	3	112	0.00	30.223 
23:40	42.6	42.6	42.6	66	32.0	0	2	112	0.00	30.223 
23:45	42.6	42.6	42.6	66	32.0	0	2	112	0.00	30.222 
23:50	42.6	42.6	42.6	66	32.0	0	2	112	0.00	30.222 
23:55	42.6	42.6	42.6	66	32.0	0	1	112	0.00	30.222 

CoCoRaHS
IN-AL-39
A2 Web Hosting
Creative Commons License
GoDaddy
search engine by freefind advanced

loaded 2018-11-17 23:31:54 • last modified 2010-11-18 10:43:29
Privacy PolicyDisclaimer
• wx.awcolley.com is powered by PmWiki v.2002016 •
• all content (unless otherwise noted) © 2018 A W Colley